createdAt,value
2019-05-22T00:01:31.858Z,14.30
2019-05-22T00:04:03.633Z,14.20
2019-05-22T00:06:32.609Z,14.10
2019-05-22T00:08:59.965Z,14.10
2019-05-22T00:11:27.698Z,14.10
2019-05-22T00:13:54.519Z,14.00
2019-05-22T00:16:21.410Z,14.00
2019-05-22T00:18:48.192Z,14.00
2019-05-22T00:21:14.940Z,14.00
2019-05-22T00:23:42.413Z,14.00
2019-05-22T00:26:09.145Z,13.90
2019-05-22T00:28:36.789Z,14.00
2019-05-22T00:31:03.526Z,14.00
2019-05-22T00:33:30.324Z,14.00
2019-05-22T00:35:57.220Z,14.00
2019-05-22T00:38:23.998Z,14.00
2019-05-22T00:40:50.848Z,13.90
2019-05-22T00:43:17.630Z,13.80
2019-05-22T00:45:44.430Z,13.70
2019-05-22T00:48:11.191Z,13.60
2019-05-22T00:50:37.977Z,13.50
2019-05-22T00:53:12.509Z,13.50
2019-05-22T00:55:41.883Z,13.50
2019-05-22T00:58:08.672Z,13.40
2019-05-22T01:00:38.445Z,13.40
2019-05-22T01:03:05.280Z,13.40
2019-05-22T01:05:32.062Z,13.30
2019-05-22T01:07:58.834Z,13.20
2019-05-22T01:10:25.706Z,13.20
2019-05-22T01:12:53.304Z,13.20
2019-05-22T01:15:20.059Z,13.20
2019-05-22T01:17:46.781Z,13.10
2019-05-22T01:20:15.336Z,13.20
2019-05-22T01:22:42.199Z,13.20
2019-05-22T01:25:09.769Z,13.20
2019-05-22T01:27:37.288Z,13.20
2019-05-22T01:30:04.087Z,13.20
2019-05-22T01:32:30.950Z,13.20
2019-05-22T01:34:57.652Z,13.30
2019-05-22T01:37:24.434Z,13.30
2019-05-22T01:39:51.359Z,13.20
2019-05-22T01:48:15.671Z,13.10
2019-05-22T01:50:42.629Z,13.10
2019-05-22T01:53:09.368Z,13.10
2019-05-22T01:55:36.977Z,13.00
2019-05-22T01:58:03.838Z,12.90
2019-05-22T02:00:30.851Z,12.90
2019-05-22T02:02:57.589Z,12.90
2019-05-22T02:05:24.286Z,12.90
2019-05-22T02:07:51.693Z,12.90
2019-05-22T02:10:20.434Z,12.90
2019-05-22T02:12:47.966Z,12.90
2019-05-22T02:15:14.760Z,12.90
2019-05-22T02:17:41.565Z,12.90
2019-05-22T02:20:09.063Z,12.90
2019-05-22T02:22:35.212Z,13.00
2019-05-22T02:25:02.146Z,13.00
2019-05-22T02:27:28.908Z,13.10
2019-05-22T02:29:55.640Z,13.20
2019-05-22T02:32:22.436Z,13.20
2019-05-22T02:34:49.958Z,13.00
2019-05-22T02:37:16.708Z,13.00
2019-05-22T02:39:43.716Z,13.00
2019-05-22T02:42:12.286Z,13.00
2019-05-22T02:44:39.109Z,12.90
2019-05-22T02:47:18.862Z,13.10
2019-05-22T02:49:35.109Z,12.90
2019-05-22T02:52:01.862Z,12.90
2019-05-22T02:54:29.382Z,12.90
2019-05-22T02:56:56.111Z,12.90
2019-05-22T02:59:22.917Z,12.90
2019-05-22T03:01:49.596Z,12.80
2019-05-22T03:04:16.411Z,12.90
2019-05-22T03:06:43.909Z,13.00
2019-05-22T03:09:12.734Z,13.00
2019-05-22T03:11:39.564Z,12.80
2019-05-22T03:14:06.380Z,12.90
2019-05-22T03:16:49.949Z,12.90
2019-05-22T03:19:16.730Z,12.90
2019-05-22T03:21:43.498Z,13.00
2019-05-22T03:24:10.324Z,13.10
2019-05-22T03:26:37.077Z,13.10
2019-05-22T03:29:03.921Z,13.20
2019-05-22T03:31:30.681Z,13.10
2019-05-22T03:33:57.433Z,13.10
2019-05-22T03:36:24.192Z,13.40
2019-05-22T03:38:50.938Z,13.30
2019-05-22T03:41:17.750Z,13.40
2019-05-22T03:43:44.596Z,13.20
2019-05-22T03:46:19.327Z,13.40
2019-05-22T03:48:46.146Z,13.50
2019-05-22T03:51:12.969Z,13.40
2019-05-22T03:53:39.818Z,13.40
2019-05-22T03:56:06.651Z,13.30
2019-05-22T03:58:33.389Z,13.40
2019-05-22T04:01:00.196Z,13.40
2019-05-22T04:03:27.693Z,13.80
2019-05-22T04:05:54.429Z,13.70
2019-05-22T04:08:21.233Z,13.80
2019-05-22T04:10:53.840Z,13.60
2019-05-22T04:13:21.331Z,13.40
2019-05-22T04:15:48.115Z,13.40
2019-05-22T04:18:14.917Z,13.70
2019-05-22T04:20:41.637Z,13.50
2019-05-22T04:23:08.466Z,13.70
2019-05-22T04:25:35.291Z,13.90
2019-05-22T04:28:02.811Z,14.10
2019-05-22T04:30:29.526Z,14.10
2019-05-22T04:32:56.371Z,14.00
2019-05-22T04:35:23.227Z,14.20
2019-05-22T04:37:49.949Z,14.10
2019-05-22T04:43:26.772Z,14.30
2019-05-22T04:45:53.585Z,14.40
2019-05-22T04:48:20.357Z,14.60
2019-05-22T04:50:47.213Z,14.70
2019-05-22T04:53:13.968Z,14.40
2019-05-22T04:55:40.732Z,14.50
2019-05-22T04:58:08.329Z,15.00
2019-05-22T05:00:35.130Z,15.40
2019-05-22T05:03:01.921Z,15.80
2019-05-22T05:05:29.622Z,16.20
2019-05-22T05:07:57.189Z,16.70
2019-05-22T05:10:24.009Z,16.70
2019-05-22T05:12:50.818Z,16.50
2019-05-22T05:15:17.560Z,16.60
2019-05-22T05:17:44.379Z,16.60
2019-05-22T05:20:22.093Z,17.10
2019-05-22T05:22:44.215Z,17.60
2019-05-22T05:25:11.000Z,17.60
2019-05-22T05:27:37.744Z,18.20
2019-05-22T05:30:04.480Z,19.50
2019-05-22T05:32:31.229Z,20.60
2019-05-22T05:34:58.031Z,21.60
2019-05-22T05:37:24.800Z,22.50
2019-05-22T05:43:00.734Z,21.20
2019-05-22T05:45:27.565Z,21.10
2019-05-22T05:47:54.370Z,20.80
2019-05-22T05:50:21.067Z,20.70
2019-05-22T05:52:47.968Z,20.80
2019-05-22T05:55:14.830Z,21.10
2019-05-22T06:00:38.644Z,21.00
2019-05-22T06:06:11.840Z,23.50
2019-05-22T06:08:38.576Z,26.30
2019-05-22T06:11:19.179Z,28.30
2019-05-22T06:13:45.975Z,29.00
2019-05-22T06:19:14.940Z,29.90
2019-05-22T06:21:44.545Z,30.70
2019-05-22T06:24:21.081Z,30.20
2019-05-22T06:26:50.405Z,30.30
2019-05-22T06:29:17.167Z,30.30
2019-05-22T06:32:05.775Z,29.70
2019-05-22T06:34:33.303Z,31.40
2019-05-22T06:37:00.044Z,31.40
2019-05-22T06:39:26.890Z,29.80
2019-05-22T06:41:53.575Z,29.80
2019-05-22T06:44:30.661Z,33.50
2019-05-22T06:46:57.922Z,33.40
2019-05-22T06:49:37.747Z,33.10
2019-05-22T06:52:06.878Z,33.00
2019-05-22T06:54:34.431Z,33.00
2019-05-22T06:57:01.594Z,31.60
2019-05-22T06:59:28.334Z,29.60
2019-05-22T07:02:01.445Z,30.30
2019-05-22T07:04:22.974Z,31.90
2019-05-22T07:06:50.257Z,32.00
2019-05-22T07:09:18.062Z,34.40
2019-05-22T07:11:45.538Z,34.30
2019-05-22T07:14:13.226Z,35.60
2019-05-22T07:16:40.897Z,35.60
2019-05-22T07:19:08.652Z,34.30
2019-05-22T07:21:36.129Z,31.60
2019-05-22T07:24:03.758Z,32.10
2019-05-22T07:26:30.659Z,32.10
2019-05-22T07:29:00.771Z,32.30
2019-05-22T07:31:25.070Z,33.40
2019-05-22T07:33:51.762Z,33.50
2019-05-22T07:36:18.547Z,33.20
2019-05-22T07:38:45.369Z,33.70
2019-05-22T07:41:12.143Z,34.70
2019-05-22T07:43:41.681Z,34.30
2019-05-22T07:46:06.137Z,33.70
2019-05-22T07:48:32.862Z,33.10
2019-05-22T07:50:59.732Z,30.90
2019-05-22T07:53:26.444Z,29.90
2019-05-22T07:55:53.232Z,29.00
2019-05-22T07:58:20.012Z,28.80
2019-05-22T08:00:47.587Z,28.20
2019-05-22T08:03:14.329Z,27.60
2019-05-22T08:05:41.163Z,27.30
2019-05-22T08:08:07.920Z,26.80
2019-05-22T08:10:34.725Z,27.60
2019-05-22T08:13:02.224Z,27.40
2019-05-22T08:15:29.006Z,27.40
2019-05-22T08:17:57.743Z,28.60
2019-05-22T08:20:24.884Z,28.60
2019-05-22T08:22:51.725Z,28.50
2019-05-22T08:25:18.514Z,28.70
2019-05-22T08:27:45.300Z,29.80
2019-05-22T08:30:12.227Z,30.70
2019-05-22T08:32:39.040Z,30.50
2019-05-22T08:35:07.642Z,28.90
2019-05-22T08:37:35.176Z,29.70
2019-05-22T08:40:03.024Z,29.60
2019-05-22T08:42:29.008Z,30.50
2019-05-22T08:44:56.537Z,30.60
2019-05-22T08:47:23.417Z,30.60
2019-05-22T08:49:50.987Z,31.20
2019-05-22T08:52:23.383Z,30.70
2019-05-22T08:54:45.281Z,30.70
2019-05-22T08:57:12.855Z,31.00
2019-05-22T08:59:39.605Z,30.90
2019-05-22T09:02:06.349Z,30.60
2019-05-22T09:04:33.094Z,29.30
2019-05-22T09:06:59.825Z,28.50
2019-05-22T09:09:26.673Z,28.70
2019-05-22T09:11:53.359Z,28.80
2019-05-22T09:14:20.814Z,27.60
2019-05-22T09:16:47.527Z,27.50
2019-05-22T09:19:14.347Z,28.30
2019-05-22T09:21:41.256Z,28.30
2019-05-22T09:24:08.049Z,28.80
2019-05-22T09:26:34.745Z,29.60
2019-05-22T09:29:02.271Z,27.70
2019-05-22T09:31:28.993Z,27.60
2019-05-22T09:33:55.687Z,27.30
2019-05-22T09:36:22.451Z,27.70
2019-05-22T09:38:52.223Z,27.70
2019-05-22T09:41:16.034Z,27.50
2019-05-22T09:43:42.797Z,27.50
2019-05-22T09:46:09.594Z,27.50
2019-05-22T09:48:37.109Z,26.10
2019-05-22T09:51:03.866Z,26.00
2019-05-22T09:53:30.771Z,26.20
2019-05-22T09:55:57.474Z,26.70
2019-05-22T09:58:24.231Z,26.20
2019-05-22T10:00:51.155Z,26.00
2019-05-22T10:03:17.841Z,25.60
2019-05-22T10:05:44.652Z,25.80
2019-05-22T10:08:12.189Z,26.30
2019-05-22T10:10:39.718Z,26.40
2019-05-22T10:13:06.463Z,26.40
2019-05-22T10:15:33.241Z,27.00
2019-05-22T10:18:00.759Z,27.40
2019-05-22T10:20:27.571Z,27.30
2019-05-22T10:22:54.250Z,27.10
2019-05-22T10:25:21.068Z,27.70
2019-05-22T10:27:47.828Z,27.50
2019-05-22T10:30:15.563Z,27.70
2019-05-22T10:32:42.332Z,27.70
2019-05-22T10:35:09.861Z,27.80
2019-05-22T10:37:36.557Z,27.80
2019-05-22T10:40:04.118Z,28.10
2019-05-22T10:42:30.876Z,28.10
2019-05-22T10:44:57.617Z,28.20
2019-05-22T10:47:25.457Z,28.10
2019-05-22T10:49:53.818Z,27.80
2019-05-22T10:52:21.566Z,28.30
2019-05-22T10:54:49.055Z,28.20
2019-05-22T10:57:16.045Z,29.00
2019-05-22T10:59:42.815Z,29.50
2019-05-22T11:02:09.613Z,29.50
2019-05-22T11:04:37.179Z,29.50
2019-05-22T11:07:03.946Z,29.50
2019-05-22T11:09:30.720Z,29.80
2019-05-22T11:11:57.400Z,29.70
2019-05-22T11:14:24.132Z,29.50
2019-05-22T11:16:51.666Z,29.00
2019-05-22T11:19:18.372Z,28.90
2019-05-22T11:21:45.223Z,29.40
2019-05-22T11:24:11.991Z,29.40
2019-05-22T11:26:38.795Z,29.00
2019-05-22T11:29:05.520Z,28.70
2019-05-22T11:31:32.306Z,28.20
2019-05-22T11:33:59.097Z,28.20
2019-05-22T11:36:25.874Z,27.80
2019-05-22T11:38:52.645Z,27.70
2019-05-22T11:41:20.177Z,27.50
2019-05-22T11:43:46.987Z,27.50
2019-05-22T11:46:13.848Z,27.90
2019-05-22T11:48:40.564Z,27.90
2019-05-22T11:51:07.375Z,27.30
2019-05-22T11:53:34.853Z,27.30
2019-05-22T11:56:01.663Z,27.20
2019-05-22T11:58:28.409Z,27.10
2019-05-22T12:00:55.235Z,27.10
2019-05-22T12:03:22.023Z,27.60
2019-05-22T12:05:48.791Z,27.50
2019-05-22T12:08:15.538Z,27.70
2019-05-22T12:10:42.335Z,27.70
2019-05-22T12:13:09.861Z,27.50
2019-05-22T12:15:36.630Z,27.50
2019-05-22T12:18:04.265Z,27.80
2019-05-22T12:20:31.082Z,27.70
2019-05-22T12:22:57.795Z,27.90
2019-05-22T12:25:24.610Z,27.90
2019-05-22T12:27:51.302Z,27.20
2019-05-22T12:30:18.043Z,27.20
2019-05-22T12:32:44.925Z,27.10
2019-05-22T12:35:12.409Z,26.70
2019-05-22T12:37:39.221Z,26.70
2019-05-22T12:40:06.001Z,26.60
2019-05-22T12:42:32.861Z,26.40
2019-05-22T12:44:59.585Z,26.10
2019-05-22T12:47:27.087Z,25.90
2019-05-22T12:49:53.828Z,25.80
2019-05-22T12:52:20.546Z,25.90
2019-05-22T12:54:52.101Z,26.10
2019-05-22T12:57:14.177Z,26.10
2019-05-22T12:59:41.024Z,25.30
2019-05-22T13:02:07.806Z,25.00
2019-05-22T13:04:34.539Z,25.20
2019-05-22T13:07:01.293Z,25.20
2019-05-22T13:09:28.083Z,24.90
2019-05-22T13:11:54.896Z,24.50
2019-05-22T13:14:22.441Z,24.50
2019-05-22T13:16:49.425Z,24.50
2019-05-22T13:19:16.063Z,24.60
2019-05-22T13:21:42.879Z,24.70
2019-05-22T13:24:12.628Z,24.70
2019-05-22T13:26:39.396Z,24.80
2019-05-22T13:29:07.084Z,24.70
2019-05-22T13:31:33.843Z,24.70
2019-05-22T13:34:00.902Z,24.70
2019-05-22T13:36:28.927Z,24.70
2019-05-22T13:38:56.157Z,24.60
2019-05-22T13:41:23.286Z,24.50
2019-05-22T13:43:50.871Z,24.80
2019-05-22T13:46:17.606Z,24.70
2019-05-22T13:48:45.145Z,24.60
2019-05-22T13:51:11.880Z,24.60
2019-05-22T13:53:38.700Z,24.60
2019-05-22T13:56:05.537Z,24.40
2019-05-22T13:58:32.340Z,24.50
2019-05-22T14:00:59.816Z,24.40
2019-05-22T14:03:26.621Z,24.30
2019-05-22T14:05:54.308Z,24.10
2019-05-22T14:08:21.849Z,23.90
2019-05-22T14:10:50.245Z,23.70
2019-05-22T14:13:16.749Z,23.70
2019-05-22T14:15:52.369Z,23.90
2019-05-22T14:18:11.232Z,23.80
2019-05-22T14:20:38.134Z,24.00
2019-05-22T14:23:04.961Z,24.00
2019-05-22T14:25:31.703Z,24.10
2019-05-22T14:27:58.445Z,24.10
2019-05-22T14:30:26.021Z,23.90
2019-05-22T14:32:53.494Z,23.90
2019-05-22T14:35:20.280Z,23.90
2019-05-22T14:37:47.061Z,23.70
2019-05-22T14:40:14.600Z,23.50
2019-05-22T14:42:42.932Z,23.60
2019-05-22T14:45:09.698Z,23.50
2019-05-22T14:47:36.402Z,23.60
2019-05-22T14:50:04.121Z,23.70
2019-05-22T14:52:30.889Z,23.40
2019-05-22T14:54:57.597Z,23.40
2019-05-22T14:57:25.162Z,23.40
2019-05-22T14:59:52.666Z,23.30
2019-05-22T15:02:19.470Z,23.20
2019-05-22T15:04:46.248Z,23.30
2019-05-22T15:07:12.960Z,23.20
2019-05-22T15:09:39.768Z,23.10
2019-05-22T15:12:06.565Z,23.20
2019-05-22T15:14:33.254Z,23.10
2019-05-22T15:16:59.956Z,23.00
2019-05-22T15:19:26.720Z,22.90
2019-05-22T15:21:53.498Z,22.90
2019-05-22T15:24:20.232Z,23.00
2019-05-22T15:26:47.016Z,22.90
2019-05-22T15:29:13.719Z,22.90
2019-05-22T15:31:41.248Z,23.00
2019-05-22T15:34:08.026Z,22.90
2019-05-22T15:36:35.534Z,22.70
2019-05-22T15:39:02.470Z,22.70
2019-05-22T15:41:29.919Z,22.20
2019-05-22T15:43:56.732Z,22.20
2019-05-22T15:46:23.487Z,21.90
2019-05-22T15:48:50.273Z,21.70
2019-05-22T15:51:17.030Z,21.70
2019-05-22T15:53:43.776Z,21.70
2019-05-22T15:56:10.568Z,21.50
2019-05-22T15:58:37.416Z,21.50
2019-05-22T16:01:04.238Z,21.60
2019-05-22T16:03:31.014Z,21.60
2019-05-22T16:05:57.730Z,21.50
2019-05-22T16:08:24.559Z,21.40
2019-05-22T16:10:51.869Z,21.30
2019-05-22T16:13:18.270Z,21.30
2019-05-22T16:15:45.064Z,21.10
2019-05-22T16:18:12.610Z,21.10
2019-05-22T16:20:40.162Z,21.00
2019-05-22T16:23:07.009Z,21.00
2019-05-22T16:25:33.800Z,21.10
2019-05-22T16:28:00.588Z,21.00
2019-05-22T16:30:28.204Z,20.70
2019-05-22T16:32:54.983Z,20.50
2019-05-22T16:35:21.710Z,20.30
2019-05-22T16:37:48.415Z,20.20
2019-05-22T16:40:16.062Z,20.40
2019-05-22T16:42:43.596Z,20.40
2019-05-22T16:45:10.426Z,20.40
2019-05-22T16:47:37.246Z,20.50
2019-05-22T16:50:04.958Z,20.50
2019-05-22T16:52:31.791Z,20.30
2019-05-22T16:54:58.547Z,20.40
2019-05-22T16:57:26.387Z,20.20
2019-05-22T16:59:54.465Z,20.10
2019-05-22T17:02:21.390Z,20.00
2019-05-22T17:04:48.214Z,20.00
2019-05-22T17:07:14.991Z,19.80
2019-05-22T17:09:41.773Z,19.80
2019-05-22T17:12:08.628Z,19.80
2019-05-22T17:14:35.389Z,19.70
2019-05-22T17:17:02.153Z,19.60
2019-05-22T17:19:29.504Z,19.60
2019-05-22T17:21:56.845Z,19.30
2019-05-22T17:24:23.611Z,19.30
2019-05-22T17:26:50.480Z,19.20
2019-05-22T17:29:18.038Z,18.90
2019-05-22T17:31:44.890Z,19.00
2019-05-22T17:34:17.906Z,18.80
2019-05-22T17:36:45.433Z,18.80
2019-05-22T17:39:12.916Z,18.70
2019-05-22T17:41:40.021Z,18.70
2019-05-22T17:44:07.631Z,18.60
2019-05-22T17:46:34.402Z,18.50
2019-05-22T17:49:01.199Z,18.60
2019-05-22T17:51:28.037Z,18.60
2019-05-22T17:53:54.808Z,18.70
2019-05-22T17:56:21.575Z,18.60
2019-05-22T17:58:48.423Z,18.50
2019-05-22T18:01:15.176Z,18.40
2019-05-22T18:03:42.025Z,18.30
2019-05-22T18:06:09.021Z,18.20
2019-05-22T18:08:36.022Z,18.20
2019-05-22T18:11:03.953Z,18.10
2019-05-22T18:13:31.449Z,18.10
2019-05-22T18:15:59.070Z,18.00
2019-05-22T18:18:25.771Z,18.00
2019-05-22T18:20:52.583Z,18.00
2019-05-22T18:23:20.095Z,17.70
2019-05-22T18:25:46.895Z,17.70
2019-05-22T18:28:14.446Z,17.60
2019-05-22T18:30:42.155Z,17.50
2019-05-22T18:33:08.950Z,17.40
2019-05-22T18:35:35.741Z,17.40
2019-05-22T18:38:04.787Z,17.40
2019-05-22T18:40:29.305Z,17.20
2019-05-22T18:42:56.088Z,17.10
2019-05-22T18:45:22.900Z,17.00
2019-05-22T18:47:49.750Z,16.90
2019-05-22T18:50:16.471Z,16.80
2019-05-22T18:52:43.210Z,16.80
2019-05-22T18:55:10.703Z,16.60
2019-05-22T18:57:37.514Z,16.60
2019-05-22T19:00:06.092Z,16.40
2019-05-22T19:02:32.076Z,16.30
2019-05-22T19:04:59.577Z,16.20
2019-05-22T19:07:27.320Z,16.20
2019-05-22T19:09:54.552Z,16.00
2019-05-22T19:12:22.394Z,15.90
2019-05-22T19:14:49.181Z,15.90
2019-05-22T19:17:15.928Z,15.80
2019-05-22T19:19:42.736Z,15.70
2019-05-22T19:22:09.465Z,15.60
2019-05-22T19:24:36.200Z,15.50
2019-05-22T19:27:03.139Z,15.40
2019-05-22T19:29:30.132Z,15.20
2019-05-22T19:31:57.078Z,15.20
2019-05-22T19:34:23.880Z,15.10
2019-05-22T19:36:50.650Z,15.00
2019-05-22T19:39:17.413Z,14.90
2019-05-22T19:41:59.892Z,14.70
2019-05-22T19:44:15.255Z,14.60
2019-05-22T19:46:42.872Z,14.50
2019-05-22T19:49:09.668Z,14.50
2019-05-22T19:51:36.477Z,14.40
2019-05-22T19:54:03.270Z,14.30
2019-05-22T19:56:29.985Z,14.30
2019-05-22T19:58:56.908Z,14.20
2019-05-22T20:01:24.465Z,14.00
2019-05-22T20:03:51.318Z,14.00
2019-05-22T20:06:18.201Z,14.10
2019-05-22T20:08:45.649Z,13.90
2019-05-22T20:11:12.594Z,13.80
2019-05-22T20:13:39.384Z,13.80
2019-05-22T20:16:06.149Z,13.80
2019-05-22T20:18:33.167Z,13.70
2019-05-22T20:21:00.892Z,13.60
2019-05-22T20:23:36.135Z,13.50
2019-05-22T20:25:54.773Z,13.40
2019-05-22T20:28:21.858Z,13.40
2019-05-22T20:30:48.767Z,13.30
2019-05-22T20:33:17.030Z,13.20
2019-05-22T20:35:43.991Z,13.20
2019-05-22T20:38:11.518Z,13.10
2019-05-22T20:40:38.298Z,13.10
2019-05-22T20:43:05.101Z,13.10
2019-05-22T20:45:32.731Z,12.90
2019-05-22T20:48:03.427Z,12.90
2019-05-22T20:50:30.135Z,12.90
2019-05-22T20:52:56.894Z,12.80
2019-05-22T20:55:23.634Z,12.70
2019-05-22T20:57:50.370Z,12.60
2019-05-22T21:00:17.156Z,12.60
2019-05-22T21:02:43.906Z,12.50
2019-05-22T21:05:11.032Z,12.50
2019-05-22T21:07:38.678Z,12.50
2019-05-22T21:10:05.466Z,12.50
2019-05-22T21:12:35.714Z,12.50
2019-05-22T21:14:59.112Z,12.40
2019-05-22T21:17:26.710Z,12.40
2019-05-22T21:19:54.205Z,12.20
2019-05-22T21:22:20.951Z,12.20
2019-05-22T21:24:47.766Z,12.10
2019-05-22T21:27:14.746Z,12.20
2019-05-22T21:29:41.614Z,12.10
2019-05-22T21:32:09.173Z,12.10
2019-05-22T21:34:36.690Z,12.00
2019-05-22T21:37:03.472Z,12.00
2019-05-22T21:39:31.049Z,11.90
2019-05-22T21:41:58.482Z,11.80
2019-05-22T21:44:25.153Z,11.80
2019-05-22T21:46:52.028Z,11.80
2019-05-22T21:49:18.817Z,11.80
2019-05-22T21:51:45.551Z,11.70
2019-05-22T21:54:12.327Z,11.60
2019-05-22T21:56:39.843Z,11.60
2019-05-22T21:59:06.845Z,11.60
2019-05-22T22:01:34.629Z,11.60
2019-05-22T22:04:03.306Z,11.60
2019-05-22T22:06:33.153Z,11.60
2019-05-22T22:08:57.199Z,11.70
2019-05-22T22:11:24.351Z,11.60
2019-05-22T22:13:51.118Z,11.60
2019-05-22T22:16:17.952Z,11.60
2019-05-22T22:18:44.671Z,11.60
2019-05-22T22:21:11.403Z,11.60
2019-05-22T22:23:38.175Z,11.70
2019-05-22T22:26:23.236Z,11.70
2019-05-22T22:28:32.562Z,11.90
2019-05-22T22:31:00.240Z,11.90
2019-05-22T22:33:27.119Z,12.00
2019-05-22T22:35:53.921Z,12.10
2019-05-22T22:38:20.695Z,12.20
2019-05-22T22:40:47.516Z,12.20
2019-05-22T22:43:14.297Z,12.20
2019-05-22T22:45:50.853Z,12.30
2019-05-22T22:48:18.626Z,12.30
2019-05-22T22:50:46.116Z,12.30
2019-05-22T22:53:12.859Z,12.30
2019-05-22T22:55:39.879Z,12.40
2019-05-22T22:58:16.518Z,12.40
2019-05-22T23:00:35.241Z,12.40
2019-05-22T23:03:01.963Z,12.30
2019-05-22T23:05:28.756Z,12.30
2019-05-22T23:07:55.496Z,12.30
2019-05-22T23:10:22.293Z,12.30
2019-05-22T23:12:49.061Z,12.30
2019-05-22T23:15:18.260Z,12.30
2019-05-22T23:17:42.765Z,12.40
2019-05-22T23:20:09.170Z,12.40
2019-05-22T23:22:35.648Z,12.50
2019-05-22T23:25:02.426Z,12.50
2019-05-22T23:27:29.220Z,12.50
2019-05-22T23:29:56.029Z,12.50
2019-05-22T23:32:22.804Z,12.60
2019-05-22T23:34:49.574Z,12.50
2019-05-22T23:37:16.335Z,12.40
2019-05-22T23:39:43.090Z,12.20
2019-05-22T23:42:09.855Z,12.00
2019-05-22T23:44:36.619Z,12.00
2019-05-22T23:47:03.427Z,11.90
2019-05-22T23:49:30.361Z,11.80
2019-05-22T23:51:57.093Z,11.60
2019-05-22T23:54:23.783Z,11.40
2019-05-22T23:56:50.539Z,11.20
2019-05-22T23:59:17.321Z,11.20
